Hauptseite
METAR-TAF:

METAR-TAF

Flughäfen :

Larnaka, Zypern

Flughafen Larnaka

Breite: 34-53N, Länge: 033-38E, Höhe: 2 m

Beobachtung

Neuester Wetterbericht von vor 10 Minuten, um 14:00 UTC
Wind 7 kt aus Süd/Südwest
Temperatur 27°C
Luftfeuchtigkeit 42%
Luftdruck 1015 hPa
Sichtweite 10 km oder mehr
Leicht bewölkt in der Höhe von 3500 ft

METAR: LCLK 201400Z 21007KT 9999 FEW035 27/13 Q1015 NOSIG

Zeit: 17:10 (14:10 UTC)

Prognose

Neuester Wetterbericht von vor 2 Stunden und 40 Minuten, um 11:30 UTC
Gültige Prognose vom 20 um 12 UTC bis 21 um 12 UTC
Wind 12 kt aus Süd/Südwest
Sichtweite 10 km oder mehr
keine Wolken unter 1500 m und keine Kumulonimbus oder Gewitterwolken
Übergehend zu
vom 20 um 16 UTC bis 20 um 18 UTC
Wind 6 kt aus Nordwest
Übergehend zu
vom 21 um 10 UTC bis 21 um 12 UTC
Wind 14 kt aus Süd/Südwest

TAF: LCLK 201130Z 2012/2112 21012KT CAVOK BECMG 2016/2018 32006KT BECMG 2110/2112 21014KT

Wetterbeobachtungen und Prognosen von mehr als 4000 Flughäfen (METAR und TAF Bericht).

Die verfügbaren Stationen werden durch gelbe und rote Markierungen auf der Karte dargestellt.

Führen Sie die Maus auf sie, um den Namen der Station zu sehen.

Darauf klicken, um die Beobachtung von Wetterbeobachtungen und Prognosen zu sehen.

Um die Karte zu ändern : klicken Sie auf den grünen Tasten mit einem schwarzen Kreuz Zum Vergrößern, auf den grünen Button mit einem Gedankenstrich zu verkleinern, oder auf die grünen Pfeile für benachbarte Karten.


METAR-TAF: